Time;durP1;ratioP1;P1;durP2;ratioP2;P2;SDS_P1;SDS_P2;PMS_P1;PMS_P2;Temp;Humidity;BMP_temperature;BMP_pressure;BME280_temperature;BME280_humidity;BME280_pressure;Samples;Min_cycle;Max_cycle;Signal;HPM_P1;HPM_P2
2022/09/06 00:01:37;;;;;;;8.50;4.10;;;21.40;99.90;;;;;;5066650;28;20459;-84
2022/09/06 00:04:04;;;;;;;6.80;4.57;;;21.40;99.90;;;;;;5064831;28;20562;-85
2022/09/06 00:06:31;;;;;;;8.17;5.10;;;21.40;99.90;;;;;;5066933;28;20610;-84
2022/09/06 00:08:59;;;;;;;9.30;4.97;;;21.40;99.90;;;;;;5062533;28;20484;-86
2022/09/06 00:11:26;;;;;;;5.67;4.03;;;21.30;99.90;;;;;;5065621;28;20448;-85
2022/09/06 00:13:53;;;;;;;5.00;4.10;;;21.30;99.90;;;;;;5064844;28;20502;-85
2022/09/06 00:16:23;;;;;;;7.03;4.63;;;21.30;99.90;;;;;;5066464;28;20519;-85
2022/09/06 00:18:52;;;;;;;7.70;3.93;;;21.30;99.90;;;;;;5065617;28;20456;-85
2022/09/06 00:21:21;;;;;;;5.40;3.87;;;21.30;99.90;;;;;;5064043;28;20912;-85
2022/09/06 00:23:48;;;;;;;8.27;4.20;;;21.30;99.90;;;;;;5066983;28;20472;-85
2022/09/06 00:26:17;;;;;;;6.07;3.90;;;21.30;99.90;;;;;;5067449;28;20456;-86
2022/09/06 00:28:44;;;;;;;7.50;3.60;;;21.20;99.90;;;;;;5068130;28;20555;-86
2022/09/06 00:31:12;;;;;;;4.37;3.07;;;21.20;99.90;;;;;;5069127;28;20516;-85
2022/09/06 00:33:39;;;;;;;5.50;3.10;;;21.20;99.90;;;;;;5068636;28;20845;-85
2022/09/06 00:36:08;;;;;;;4.17;3.10;;;21.20;99.90;;;;;;5074810;28;20654;-85
2022/09/06 00:38:35;;;;;;;5.47;3.37;;;21.20;99.90;;;;;;5064751;28;20526;-85
2022/09/06 00:41:02;;;;;;;4.00;2.60;;;21.20;99.90;;;;;;5085981;22;20575;-79
2022/09/06 00:43:30;;;;;;;5.00;3.00;;;21.20;99.90;;;;;;5070969;28;20543;-80
2022/09/06 00:45:57;;;;;;;3.53;2.83;;;21.20;99.90;;;;;;5074279;28;20528;-79
2022/09/06 00:48:24;;;;;;;5.80;3.50;;;21.20;99.90;;;;;;5069585;28;20542;-78
2022/09/06 00:50:54;;;;;;;4.20;2.90;;;21.20;99.90;;;;;;5075156;28;20454;-81
2022/09/06 00:53:23;;;;;;;4.50;3.07;;;21.20;99.90;;;;;;5065048;28;20550;-78
2022/09/06 00:55:50;;;;;;;3.53;2.37;;;21.20;99.90;;;;;;5056892;28;20554;-79
2022/09/06 00:58:17;;;;;;;5.10;3.03;;;21.20;99.90;;;;;;5056844;28;20606;-79
2022/09/06 01:00:45;;;;;;;3.80;2.90;;;21.20;99.90;;;;;;5054483;28;20542;-80
2022/09/06 01:03:13;;;;;;;7.00;3.73;;;21.20;99.90;;;;;;5069150;28;20538;-79
2022/09/06 01:05:49;;;;;;;6.40;3.30;;;21.20;99.90;;;;;;5062024;28;20466;-80
2022/09/06 01:08:24;;;;;;;4.80;2.67;;;21.20;99.90;;;;;;5057929;28;20471;-79
2022/09/06 01:11:08;;;;;;;5.40;3.13;;;21.20;99.90;;;;;;5076878;28;20478;-80
2022/09/06 01:13:47;;;;;;;4.97;3.10;;;21.20;99.90;;;;;;5059695;28;20959;-80
2022/09/06 01:16:25;;;;;;;4.70;2.70;;;21.20;99.90;;;;;;5076688;28;20482;-80
2022/09/06 01:19:04;;;;;;;5.17;2.93;;;21.20;99.90;;;;;;5072120;28;20458;-80
2022/09/06 01:21:45;;;;;;;6.00;2.90;;;21.20;99.90;;;;;;5057291;28;20475;-81
2022/09/06 01:24:40;;;;;;;3.83;2.77;;;21.30;99.90;;;;;;5052589;28;20897;-80
2022/09/06 01:27:35;;;;;;;5.17;2.57;;;21.30;99.90;;;;;;5050798;28;20515;-79
2022/09/06 01:30:06;;;;;;;5.30;2.43;;;21.40;99.90;;;;;;5054586;28;20455;-79
2022/09/06 01:32:46;;;;;;;3.83;2.57;;;21.40;99.90;;;;;;5070830;28;20854;-80
2022/09/06 01:35:24;;;;;;;5.20;3.13;;;21.30;99.90;;;;;;5055964;28;20463;-78
2022/09/06 01:37:51;;;;;;;5.00;2.40;;;21.30;99.90;;;;;;5061349;28;20972;-80
2022/09/06 01:40:18;;;;;;;4.50;2.50;;;21.30;99.90;;;;;;5067785;28;20462;-79
2022/09/06 01:42:47;;;;;;;3.60;2.30;;;21.20;99.90;;;;;;5063232;28;21185;-78
2022/09/06 01:45:19;;;;;;;5.10;2.80;;;21.30;99.90;;;;;;5055260;28;20480;-78
2022/09/06 01:47:54;;;;;;;4.77;2.37;;;21.40;99.90;;;;;;5057850;28;21078;-80
2022/09/06 01:50:47;;;;;;;4.20;2.60;;;21.40;99.90;;;;;;5066079;28;20480;-79
2022/09/06 01:53:29;;;;;;;3.70;2.23;;;21.40;99.90;;;;;;5057342;28;20457;-80
2022/09/06 01:56:04;;;;;;;6.07;2.37;;;21.40;99.90;;;;;;5063479;28;20805;-79
2022/09/06 01:58:52;;;;;;;5.23;2.50;;;21.40;99.90;;;;;;5068146;28;20453;-79
2022/09/06 02:01:27;;;;;;;4.93;2.57;;;21.30;99.90;;;;;;5061511;28;20477;-78
2022/09/06 02:04:01;;;;;;;5.07;2.53;;;21.40;99.90;;;;;;5068689;28;20480;-78
2022/09/06 02:06:31;;;;;;;4.40;2.80;;;21.50;99.90;;;;;;5070493;28;20586;-79
2022/09/06 02:09:04;;;;;;;4.90;2.70;;;21.50;99.90;;;;;;5055287;28;20552;-81
2022/09/06 02:11:37;;;;;;;4.57;2.33;;;21.50;99.90;;;;;;5070624;28;20475;-79
2022/09/06 02:14:09;;;;;;;5.60;2.60;;;21.50;99.90;;;;;;5054476;28;20503;-78
2022/09/06 02:16:41;;;;;;;3.47;2.70;;;21.60;99.90;;;;;;5055496;28;20443;-79
2022/09/06 02:19:14;;;;;;;4.03;2.57;;;21.60;99.90;;;;;;5066228;28;20796;-79
2022/09/06 02:21:45;;;;;;;5.07;2.30;;;21.60;99.90;;;;;;5068404;28;20830;-79
2022/09/06 02:24:17;;;;;;;3.80;2.70;;;21.60;99.90;;;;;;5054462;28;20505;-80
2022/09/06 02:26:46;;;;;;;7.40;3.73;;;21.60;99.90;;;;;;5073003;28;20464;-80
2022/09/06 02:29:13;;;;;;;5.50;2.90;;;21.60;99.90;;;;;;5074947;28;20477;-79
2022/09/06 02:31:45;;;;;;;6.60;3.40;;;21.60;99.90;;;;;;5056102;28;20472;-79
2022/09/06 02:34:16;;;;;;;6.87;4.10;;;21.50;99.90;;;;;;5043283;28;21094;-79
2022/09/06 02:36:43;;;;;;;10.87;3.40;;;21.30;99.90;;;;;;5061072;28;20443;-80
2022/09/06 02:39:11;;;;;;;6.03;4.13;;;21.20;99.90;;;;;;5075568;28;20924;-79
2022/09/06 02:41:39;;;;;;;6.40;3.70;;;21.10;99.90;;;;;;5065503;28;20479;-79
2022/09/06 02:44:06;;;;;;;6.20;4.67;;;20.90;99.90;;;;;;5071328;28;20443;-79
2022/09/06 02:46:33;;;;;;;6.20;4.37;;;20.90;99.90;;;;;;5073218;28;20451;-80
2022/09/06 02:49:02;;;;;;;6.90;4.67;;;20.80;99.90;;;;;;5075174;28;21017;-80
2022/09/06 02:51:29;;;;;;;9.47;4.77;;;20.70;99.90;;;;;;5061918;28;20476;-79
2022/09/06 02:53:56;;;;;;;6.30;4.33;;;20.70;99.90;;;;;;5064538;28;20978;-81
2022/09/06 02:56:23;;;;;;;6.53;4.37;;;20.60;99.90;;;;;;5065238;28;20518;-81
2022/09/06 02:58:50;;;;;;;7.33;4.40;;;20.60;99.90;;;;;;5064362;28;20453;-82
2022/09/06 03:01:17;;;;;;;10.13;4.27;;;20.50;99.90;;;;;;5071391;28;20475;-82
2022/09/06 03:03:45;;;;;;;6.20;4.97;;;20.50;99.90;;;;;;5076597;28;21043;-81
2022/09/06 03:06:13;;;;;;;6.40;4.73;;;20.40;99.90;;;;;;5074878;28;20545;-81
2022/09/06 03:08:40;;;;;;;6.13;5.10;;;20.40;99.90;;;;;;5076842;28;20501;-81
2022/09/06 03:11:07;;;;;;;6.40;4.93;;;20.30;99.90;;;;;;5076428;28;20486;-82
2022/09/06 03:13:34;;;;;;;5.67;4.40;;;20.20;99.90;;;;;;5073891;28;20881;-80
2022/09/06 03:16:01;;;;;;;7.30;4.20;;;20.30;99.90;;;;;;5061021;28;20456;-82
2022/09/06 03:18:30;;;;;;;6.77;5.03;;;20.20;99.90;;;;;;5061670;28;20455;-81
2022/09/06 03:20:58;;;;;;;9.63;4.80;;;20.20;99.90;;;;;;5062434;28;20487;-81
2022/09/06 03:23:31;;;;;;;8.60;5.07;;;20.20;99.90;;;;;;5060169;28;20464;-81
2022/09/06 03:25:58;;;;;;;8.57;5.23;;;20.20;99.90;;;;;;5069030;28;20446;-83
2022/09/06 03:28:25;;;;;;;6.47;4.60;;;20.20;99.90;;;;;;5080904;28;20478;-81
2022/09/06 03:30:53;;;;;;;9.40;4.80;;;20.20;99.90;;;;;;5075733;28;20448;-80
2022/09/06 03:33:20;;;;;;;7.63;5.03;;;20.20;99.90;;;;;;5063868;28;20455;-82
2022/09/06 03:35:49;;;;;;;7.20;5.20;;;20.20;99.90;;;;;;5068465;28;20451;-77
2022/09/06 03:38:16;;;;;;;6.83;4.60;;;20.10;99.90;;;;;;5077402;28;20475;-81
2022/09/06 03:40:46;;;;;;;6.27;4.73;;;20.10;99.90;;;;;;5075436;28;20516;-80
2022/09/06 03:43:14;;;;;;;8.67;4.70;;;20.10;99.90;;;;;;5062352;28;20472;-81
2022/09/06 03:45:44;;;;;;;8.13;4.57;;;20.10;99.90;;;;;;5064114;28;20958;-80
2022/09/06 03:48:11;;;;;;;10.03;5.10;;;20.10;99.90;;;;;;5076028;28;20510;-78
2022/09/06 03:50:38;;;;;;;6.60;5.20;;;20.10;99.90;;;;;;5068027;28;20451;-79
2022/09/06 03:53:05;;;;;;;9.77;4.53;;;20.10;99.90;;;;;;5069429;28;20819;-79
2022/09/06 03:55:32;;;;;;;5.53;4.90;;;20.10;99.90;;;;;;5061763;28;20486;-79
2022/09/06 03:58:00;;;;;;;7.03;4.13;;;20.10;99.90;;;;;;5076470;28;20537;-79
2022/09/06 04:00:27;;;;;;;10.87;4.77;;;20.00;99.90;;;;;;5069025;28;20448;-80
2022/09/06 04:02:54;;;;;;;7.60;4.60;;;20.00;99.90;;;;;;5070706;28;20543;-79
2022/09/06 04:05:21;;;;;;;8.23;4.00;;;20.00;99.90;;;;;;5075420;28;20508;-81
2022/09/06 04:07:48;;;;;;;4.63;3.93;;;20.00;99.90;;;;;;5075976;28;20511;-78
2022/09/06 04:10:15;;;;;;;6.60;4.70;;;20.00;99.90;;;;;;5069790;28;20456;-79
2022/09/06 04:12:43;;;;;;;8.83;5.50;;;20.00;99.90;;;;;;5055535;28;21053;-81
2022/09/06 04:15:12;;;;;;;5.20;3.97;;;20.00;99.90;;;;;;5055949;28;20558;-80
2022/09/06 04:17:39;;;;;;;5.37;4.80;;;20.00;99.90;;;;;;5056715;28;20459;-79
2022/09/06 04:20:07;;;;;;;6.13;4.33;;;20.00;99.90;;;;;;5059402;28;20491;-82
2022/09/06 04:22:34;;;;;;;5.53;4.03;;;20.00;99.90;;;;;;5055196;28;20530;-79
2022/09/06 04:25:01;;;;;;;4.57;4.10;;;20.00;99.90;;;;;;5061389;28;20509;-80
2022/09/06 04:27:28;;;;;;;6.73;3.90;;;20.10;99.90;;;;;;5076063;28;20483;-81
2022/09/06 04:29:55;;;;;;;8.47;4.83;;;20.10;99.90;;;;;;5072475;28;20493;-81
2022/09/06 04:32:23;;;;;;;5.80;4.47;;;20.00;99.90;;;;;;5055306;28;20483;-80
2022/09/06 04:34:50;;;;;;;6.27;5.00;;;20.00;99.90;;;;;;5065262;28;20479;-81
2022/09/06 04:37:18;;;;;;;5.80;5.10;;;20.00;99.90;;;;;;5056673;28;20521;-81
2022/09/06 04:39:45;;;;;;;6.87;4.53;;;20.00;99.90;;;;;;5058689;28;20451;-81
2022/09/06 04:42:13;;;;;;;4.37;3.83;;;20.00;99.90;;;;;;5033881;28;20488;-81
2022/09/06 04:44:40;;;;;;;5.70;4.43;;;20.00;99.90;;;;;;5053389;28;20455;-80
2022/09/06 04:47:11;;;;;;;5.90;4.17;;;20.00;99.90;;;;;;5064547;28;20853;-83
2022/09/06 04:49:40;;;;;;;6.30;4.33;;;20.00;99.90;;;;;;5072508;28;20990;-79
2022/09/06 04:52:07;;;;;;;7.03;4.47;;;20.00;99.90;;;;;;5072776;28;20474;-84
2022/09/06 04:54:34;;;;;;;5.43;4.07;;;20.00;99.90;;;;;;5071988;28;20502;-80
2022/09/06 04:57:01;;;;;;;8.60;4.80;;;19.90;99.90;;;;;;5075276;28;20455;-81
2022/09/06 04:59:28;;;;;;;5.90;4.03;;;19.90;99.90;;;;;;5074457;28;20538;-82
2022/09/06 05:01:55;;;;;;;6.93;3.80;;;19.90;99.90;;;;;;5055245;28;21141;-81
2022/09/06 05:04:22;;;;;;;8.47;4.00;;;19.90;99.90;;;;;;5064684;28;20983;-81
2022/09/06 05:07:00;;;;;;;5.20;3.93;;;19.90;99.90;;;;;;5069494;28;20877;-82
2022/09/06 05:09:27;;;;;;;3.60;1.73;;;19.80;99.90;;;;;;5065813;28;20481;-82
2022/09/06 05:11:55;;;;;;;5.90;2.97;;;20.40;99.90;;;;;;5051433;28;20508;-84
2022/09/06 05:14:22;;;;;;;4.27;2.70;;;20.90;99.90;;;;;;5055470;28;20452;-80
2022/09/06 05:16:49;;;;;;;3.40;2.83;;;21.10;99.90;;;;;;5065035;28;20462;-82
2022/09/06 05:19:17;;;;;;;5.33;3.17;;;21.40;99.90;;;;;;5072482;28;20487;-81
2022/09/06 05:21:45;;;;;;;4.23;3.27;;;21.20;99.90;;;;;;5067598;28;20475;-81
2022/09/06 05:24:13;;;;;;;5.10;3.20;;;21.10;99.90;;;;;;5047766;28;20472;-81
2022/09/06 05:26:40;;;;;;;4.23;3.40;;;20.90;99.90;;;;;;5067281;28;20484;-82
2022/09/06 05:29:07;;;;;;;4.20;3.20;;;20.70;99.90;;;;;;5056440;28;20557;-82
2022/09/06 05:31:35;;;;;;;5.63;3.30;;;20.60;99.90;;;;;;5061031;28;20558;-83
2022/09/06 05:34:02;;;;;;;5.10;3.60;;;20.50;99.90;;;;;;5070802;28;20482;-82
2022/09/06 05:36:30;;;;;;;4.80;3.83;;;20.40;99.90;;;;;;5074090;28;20523;-85
2022/09/06 05:38:58;;;;;;;4.60;3.40;;;20.40;99.90;;;;;;5062287;28;20530;-84
2022/09/06 05:41:27;;;;;;;6.00;3.83;;;20.40;99.90;;;;;;5057393;28;20476;-81
2022/09/06 05:43:54;;;;;;;7.03;3.43;;;20.30;99.90;;;;;;5056242;28;20534;-81
2022/09/06 05:46:21;;;;;;;4.57;3.47;;;20.30;99.90;;;;;;5063647;28;20527;-82
2022/09/06 05:48:53;;;;;;;6.60;3.43;;;20.20;99.90;;;;;;5071092;28;20487;-83
2022/09/06 05:51:20;;;;;;;4.80;3.20;;;20.20;99.90;;;;;;5074186;28;20482;-83
2022/09/06 05:53:47;;;;;;;5.07;3.33;;;20.20;99.90;;;;;;5078515;28;20474;-82
2022/09/06 05:56:15;;;;;;;11.77;4.17;;;20.20;99.90;;;;;;5060916;28;20910;-81
2022/09/06 05:58:44;;;;;;;6.37;3.20;;;20.20;99.90;;;;;;5060152;28;20456;-86
2022/09/06 06:01:16;;;;;;;10.40;3.83;;;20.20;99.90;;;;;;5059865;28;20577;-83
2022/09/06 06:03:49;;;;;;;7.40;3.90;;;20.10;99.90;;;;;;5058822;28;20451;-81
2022/09/06 06:06:16;;;;;;;10.63;3.80;;;20.20;99.90;;;;;;5074268;28;20488;-82
2022/09/06 06:08:43;;;;;;;4.60;3.70;;;20.20;99.90;;;;;;5082165;28;20550;-83
2022/09/06 06:11:10;;;;;;;7.43;3.90;;;20.10;99.90;;;;;;5080821;28;20808;-82
2022/09/06 06:13:38;;;;;;;9.27;3.53;;;20.10;99.90;;;;;;5059273;28;20526;-82
2022/09/06 06:16:07;;;;;;;6.03;3.60;;;20.10;99.90;;;;;;5056816;28;20456;-82
2022/09/06 06:18:34;;;;;;;5.40;3.40;;;20.20;99.90;;;;;;5069788;28;20480;-83
2022/09/06 06:21:12;;;;;;;5.73;3.30;;;20.20;99.90;;;;;;5071635;28;20479;-83
2022/09/06 06:23:40;;;;;;;5.67;3.40;;;20.20;99.90;;;;;;5070862;28;20478;-86
2022/09/06 06:26:10;;;;;;;4.90;2.97;;;20.20;99.90;;;;;;5072073;28;20456;-83
2022/09/06 06:28:38;;;;;;;5.70;3.60;;;20.20;99.90;;;;;;5056521;28;20476;-81
2022/09/06 06:31:07;;;;;;;5.37;3.30;;;20.20;99.90;;;;;;5063518;28;20903;-83
2022/09/06 06:33:37;;;;;;;9.77;3.23;;;20.10;99.90;;;;;;5054809;28;20531;-81
2022/09/06 06:36:06;;;;;;;5.27;2.87;;;20.20;99.90;;;;;;5063461;28;20484;-83
2022/09/06 06:38:34;;;;;;;3.63;2.87;;;20.30;99.90;;;;;;5057428;28;20448;-81
2022/09/06 06:41:04;;;;;;;4.30;2.90;;;20.40;99.90;;;;;;5051707;28;20566;-81
2022/09/06 06:43:35;;;;;;;6.10;3.23;;;20.40;99.90;;;;;;5054683;28;20479;-84
2022/09/06 06:46:04;;;;;;;5.03;3.20;;;20.50;99.90;;;;;;5052558;28;20462;-85
2022/09/06 06:48:33;;;;;;;6.53;3.30;;;20.50;99.90;;;;;;5061600;28;20483;-82
2022/09/06 06:50:59;;;;;;;3.90;2.83;;;20.60;99.90;;;;;;5062305;28;20468;-83
2022/09/06 06:53:34;;;;;;;7.93;2.80;;;20.70;99.90;;;;;;5061268;28;20526;-82
2022/09/06 06:56:01;;;;;;;5.20;2.87;;;20.70;99.90;;;;;;5052374;28;20807;-82
2022/09/06 06:58:28;;;;;;;6.73;3.33;;;20.80;99.90;;;;;;5061428;28;20535;-86
2022/09/06 07:00:56;;;;;;;4.47;2.90;;;20.80;99.90;;;;;;5071692;28;20452;-81
2022/09/06 07:03:26;;;;;;;7.00;3.20;;;20.90;99.90;;;;;;5070685;28;20475;-83
2022/09/06 07:05:54;;;;;;;3.40;2.63;;;20.90;99.90;;;;;;5072169;28;20474;-83
2022/09/06 07:08:21;;;;;;;3.23;2.83;;;21.00;99.90;;;;;;5071951;28;20486;-85
2022/09/06 07:10:48;;;;;;;6.03;2.40;;;21.10;99.90;;;;;;5061948;28;20486;-82
2022/09/06 07:13:18;;;;;;;4.67;2.77;;;21.10;99.90;;;;;;5049165;28;20534;-83
2022/09/06 07:15:45;;;;;;;5.27;2.47;;;21.20;99.90;;;;;;5061249;28;21059;-81
2022/09/06 07:18:12;;;;;;;5.93;2.37;;;21.30;99.90;;;;;;5057990;28;20487;-83
2022/09/06 07:20:40;;;;;;;5.10;2.30;;;21.30;99.90;;;;;;5052729;28;20475;-83
2022/09/06 07:23:08;;;;;;;5.00;2.30;;;21.40;99.90;;;;;;5057117;28;20465;-84
2022/09/06 07:25:35;;;;;;;5.97;2.23;;;21.40;99.90;;;;;;5057546;28;20208;-84
2022/09/06 07:28:13;;;;;;;2.87;2.03;;;21.60;99.90;;;;;;5057162;28;20539;-83
2022/09/06 07:30:42;;;;;;;12.70;3.03;;;21.70;99.90;;;;;;5055171;28;20487;-83
2022/09/06 07:33:09;;;;;;;4.90;2.30;;;21.80;99.90;;;;;;5053789;28;20475;-84
2022/09/06 07:35:36;;;;;;;3.97;2.40;;;21.90;99.90;;;;;;5077355;28;20474;-83
2022/09/06 07:38:03;;;;;;;5.17;2.57;;;22.00;99.90;;;;;;5052482;28;20503;-83
2022/09/06 07:40:32;;;;;;;3.00;1.90;;;22.10;99.90;;;;;;5054688;28;20497;-83
2022/09/06 07:42:59;;;;;;;4.80;2.20;;;22.20;99.90;;;;;;5045517;28;20876;-82
2022/09/06 07:45:26;;;;;;;2.67;1.60;;;22.30;99.90;;;;;;5058905;28;21030;-83
2022/09/06 07:47:58;;;;;;;4.00;1.93;;;22.30;99.90;;;;;;5056488;28;20470;-81
2022/09/06 07:50:25;;;;;;;4.20;1.63;;;22.40;99.90;;;;;;5059119;28;20975;-80
2022/09/06 07:52:56;;;;;;;4.47;2.43;;;22.50;99.90;;;;;;5053388;28;20493;-84
2022/09/06 07:55:30;;;;;;;4.00;1.77;;;22.50;99.90;;;;;;5059560;28;20636;-81
2022/09/06 07:57:59;;;;;;;5.70;1.83;;;22.60;99.90;;;;;;5057688;28;20530;-82
2022/09/06 08:00:26;;;;;;;3.67;1.87;;;22.60;99.90;;;;;;5056461;28;20507;-82
2022/09/06 08:03:05;;;;;;;4.50;1.50;;;22.80;99.90;;;;;;5048899;28;20552;-83
2022/09/06 08:05:35;;;;;;;2.83;1.83;;;22.90;99.90;;;;;;5055280;28;20484;-80
2022/09/06 08:08:19;;;;;;;3.13;1.50;;;23.00;99.90;;;;;;5061902;28;20444;-81
2022/09/06 08:10:51;;;;;;;4.20;1.80;;;23.10;99.90;;;;;;5063576;28;20480;-81
2022/09/06 08:13:18;;;;;;;2.93;1.87;;;23.30;99.90;;;;;;5059740;28;20563;-82
2022/09/06 08:15:45;;;;;;;2.80;1.70;;;23.30;99.90;;;;;;5061282;28;20456;-85
2022/09/06 08:18:12;;;;;;;4.13;1.50;;;23.40;99.90;;;;;;5058665;28;20491;-83
2022/09/06 08:20:39;;;;;;;4.23;1.53;;;23.60;99.90;;;;;;5060613;28;20524;-81
2022/09/06 08:23:10;;;;;;;3.50;2.13;;;23.70;99.90;;;;;;5058162;28;20460;-84
2022/09/06 08:25:36;;;;;;;4.80;1.47;;;23.70;99.90;;;;;;5060761;28;20897;-82
2022/09/06 08:28:05;;;;;;;3.47;1.50;;;23.90;99.90;;;;;;5073998;28;20459;-84
2022/09/06 08:30:34;;;;;;;3.70;1.57;;;24.00;99.90;;;;;;5075551;28;20483;-83
2022/09/06 08:33:02;;;;;;;2.77;1.40;;;24.20;99.90;;;;;;5066912;28;20505;-81
2022/09/06 08:35:28;;;;;;;4.33;1.60;;;24.30;99.90;;;;;;5072204;28;20490;-83
2022/09/06 08:37:58;;;;;;;4.30;1.77;;;24.40;99.90;;;;;;5074248;28;20488;-82
2022/09/06 08:40:25;;;;;;;3.50;2.20;;;24.50;99.90;;;;;;5080079;28;20455;-81
2022/09/06 08:42:52;;;;;;;3.67;2.27;;;24.60;99.90;;;;;;5076141;28;20491;-83
2022/09/06 08:45:22;;;;;;;4.70;2.20;;;24.70;99.90;;;;;;5079845;28;21311;-82
2022/09/06 08:47:51;;;;;;;3.00;1.20;;;24.70;99.90;;;;;;5080597;28;20832;-82
2022/09/06 08:50:19;;;;;;;3.93;1.30;;;24.80;99.90;;;;;;5068827;28;20509;-81
2022/09/06 08:53:00;;;;;;;4.10;2.07;;;24.90;99.90;;;;;;5060045;28;21415;-80
2022/09/06 08:55:35;;;;;;;2.70;1.30;;;25.00;99.90;;;;;;5063581;28;20451;-84
2022/09/06 08:58:21;;;;;;;2.37;1.33;;;25.20;99.90;;;;;;5065436;28;20877;-81
2022/09/06 09:00:57;;;;;;;7.23;1.80;;;25.30;99.90;;;;;;5060155;28;20452;-80
2022/09/06 09:03:30;;;;;;;4.00;1.60;;;25.40;99.90;;;;;;5058687;28;20464;-80
2022/09/06 09:05:58;;;;;;;2.67;1.57;;;25.50;99.90;;;;;;5079570;28;20873;-82
2022/09/06 09:08:31;;;;;;;3.07;1.43;;;25.60;99.90;;;;;;5078068;28;20451;-82
2022/09/06 09:11:01;;;;;;;2.93;1.50;;;25.70;99.90;;;;;;5061152;28;20557;-84
2022/09/06 09:13:33;;;;;;;2.47;1.10;;;25.80;99.90;;;;;;5057716;28;20513;-81
2022/09/06 09:16:02;;;;;;;2.43;1.10;;;25.90;99.90;;;;;;5076536;28;20455;-82
2022/09/06 09:18:33;;;;;;;2.93;1.60;;;26.00;99.90;;;;;;5065134;28;20475;-81
2022/09/06 09:21:00;;;;;;;2.40;1.10;;;26.10;99.90;;;;;;5060077;28;20472;-80
2022/09/06 09:23:29;;;;;;;3.40;1.70;;;26.20;99.90;;;;;;5080865;28;20454;-81
2022/09/06 09:26:02;;;;;;;2.20;1.10;;;26.50;99.90;;;;;;5066857;28;20458;-81
2022/09/06 09:28:29;;;;;;;3.90;1.20;;;26.80;99.90;;;;;;5081721;28;20463;-82
2022/09/06 09:30:57;;;;;;;3.43;2.87;;;27.10;99.90;;;;;;5067486;28;20502;-81
2022/09/06 09:33:28;;;;;;;4.70;1.30;;;27.40;99.90;;;;;;5063330;28;20456;-85
2022/09/06 09:35:56;;;;;;;2.30;1.17;;;27.60;99.90;;;;;;5069769;28;20512;-83
2022/09/06 09:38:25;;;;;;;3.80;0.90;;;27.90;99.90;;;;;;5069918;28;20448;-82
2022/09/06 09:40:54;;;;;;;2.10;1.00;;;28.00;99.90;;;;;;5068345;28;20451;-83
2022/09/06 09:43:23;;;;;;;4.17;1.20;;;28.20;99.90;;;;;;5076906;28;20469;-82
2022/09/06 09:46:28;;;;;;;2.97;1.20;;;28.40;99.90;;;;;;5077647;28;20459;-84
2022/09/06 09:49:04;;;;;;;3.20;1.10;;;28.70;99.90;;;;;;5073824;28;20442;-82
2022/09/06 09:51:33;;;;;;;2.97;1.10;;;28.90;99.90;;;;;;5061883;28;20909;-81
2022/09/06 09:54:03;;;;;;;4.37;1.17;;;28.90;99.90;;;;;;5062411;28;20452;-86
2022/09/06 09:56:36;;;;;;;3.87;1.50;;;28.90;99.90;;;;;;5065994;28;20452;-81
2022/09/06 09:59:08;;;;;;;3.77;1.00;;;29.10;99.90;;;;;;5057898;28;20458;-84
2022/09/06 10:01:36;;;;;;;2.90;1.50;;;29.20;99.90;;;;;;5064218;28;20506;-83
2022/09/06 10:04:07;;;;;;;6.23;1.20;;;29.30;99.90;;;;;;5081798;28;20454;-82
2022/09/06 10:06:34;;;;;;;2.83;1.10;;;29.20;99.90;;;;;;5080916;28;20858;-84
2022/09/06 10:09:18;;;;;;;2.93;1.10;;;29.60;99.90;;;;;;5082385;28;20955;-84
2022/09/06 10:11:54;;;;;;;3.30;1.10;;;29.90;99.90;;;;;;5070304;28;20549;-81
2022/09/06 10:14:30;;;;;;;3.40;1.10;;;30.10;99.90;;;;;;5077980;28;20514;-81
2022/09/06 10:16:58;;;;;;;3.03;0.97;;;29.90;99.90;;;;;;5060656;28;20443;-81
2022/09/06 10:19:40;;;;;;;2.67;1.20;;;29.60;99.90;;;;;;5066662;28;20456;-82
2022/09/06 10:22:23;;;;;;;2.63;1.30;;;29.90;99.90;;;;;;5079894;28;20490;-81
2022/09/06 10:25:26;;;;;;;2.67;1.10;;;29.90;99.90;;;;;;5062278;28;20457;-83
2022/09/06 10:28:14;;;;;;;3.07;0.90;;;30.10;99.90;;;;;;5083396;28;20545;-82
2022/09/06 10:30:53;;;;;;;2.67;1.03;;;30.30;99.90;;;;;;5068827;28;20721;-81
2022/09/06 10:33:27;;;;;;;2.60;1.07;;;30.00;99.90;;;;;;5078124;28;20465;-83
2022/09/06 10:35:57;;;;;;;3.77;1.17;;;30.30;99.90;;;;;;5070818;28;20460;-83
2022/09/06 10:38:41;;;;;;;3.40;1.20;;;30.50;99.90;;;;;;5063023;28;20543;-83
2022/09/06 10:41:32;;;;;;;4.00;1.33;;;30.60;99.90;;;;;;5064810;28;20471;-84
2022/09/06 10:44:13;;;;;;;2.70;1.10;;;30.60;99.90;;;;;;5052822;28;20470;-82
2022/09/06 10:46:47;;;;;;;2.23;1.07;;;30.70;99.90;;;;;;5082414;28;20974;-83
2022/09/06 10:49:18;;;;;;;2.20;1.20;;;30.70;99.90;;;;;;5079465;28;20482;-81
2022/09/06 10:51:52;;;;;;;3.43;1.23;;;30.90;99.90;;;;;;5068508;28;20503;-82
2022/09/06 10:54:22;;;;;;;5.00;1.03;;;31.10;99.90;;;;;;5061517;28;20571;-82
2022/09/06 10:56:55;;;;;;;3.83;1.50;;;31.30;99.90;;;;;;5062584;28;20443;-81
2022/09/06 10:59:27;;;;;;;3.80;1.30;;;31.40;99.90;;;;;;5063498;28;20479;-82
2022/09/06 11:02:10;;;;;;;2.93;1.10;;;31.40;99.90;;;;;;5060507;28;20463;-84
2022/09/06 11:04:39;;;;;;;2.80;1.20;;;31.20;99.90;;;;;;5060410;28;20482;-82
2022/09/06 11:07:13;;;;;;;2.27;1.17;;;31.20;99.90;;;;;;5074330;28;20542;-81
2022/09/06 11:09:44;;;;;;;2.47;1.20;;;31.10;99.90;;;;;;5083627;28;20504;-81
2022/09/06 11:12:16;;;;;;;2.50;1.20;;;31.30;99.90;;;;;;5041482;28;20545;-83
2022/09/06 11:14:46;;;;;;;3.00;1.27;;;31.50;99.90;;;;;;5042924;28;20997;-83
2022/09/06 11:17:23;;;;;;;3.00;1.50;;;31.60;99.90;;;;;;5047391;28;20475;-82
2022/09/06 11:19:57;;;;;;;3.40;1.20;;;31.70;99.90;;;;;;5043397;28;20527;-82
2022/09/06 11:22:58;;;;;;;4.10;1.30;;;31.90;99.90;;;;;;5044231;28;20476;-84
2022/09/06 11:26:00;;;;;;;3.10;1.40;;;32.20;99.90;;;;;;5071144;28;20976;-81
2022/09/06 11:28:35;;;;;;;2.40;1.30;;;32.20;99.90;;;;;;5061510;28;20443;-81
2022/09/06 11:31:02;;;;;;;3.10;1.33;;;32.40;99.90;;;;;;5052951;28;20491;-81
2022/09/06 11:33:34;;;;;;;4.63;1.50;;;32.40;99.90;;;;;;5054692;28;20538;-83
2022/09/06 11:36:19;;;;;;;3.03;1.37;;;32.20;99.90;;;;;;5067699;28;20589;-81
2022/09/06 11:38:56;;;;;;;3.33;1.10;;;32.40;99.90;;;;;;5065211;28;20440;-79
2022/09/06 11:41:29;;;;;;;3.57;1.30;;;32.70;99.90;;;;;;5061519;28;20839;-82
2022/09/06 11:43:58;;;;;;;3.07;1.10;;;32.80;99.90;;;;;;5057882;28;21029;-81
2022/09/06 11:46:57;;;;;;;2.30;1.13;;;33.00;99.90;;;;;;5063049;28;20456;-84
2022/09/06 11:49:45;;;;;;;5.60;1.60;;;33.30;99.90;;;;;;5053974;28;20448;-79
2022/09/06 11:52:58;;;;;;;4.07;1.30;;;33.30;99.90;;;;;;5056733;28;20502;-80
2022/09/06 11:55:36;;;;;;;2.90;1.17;;;33.60;99.90;;;;;;5054446;28;20464;-81
2022/09/06 11:58:06;;;;;;;3.07;1.10;;;33.70;97.20;;;;;;5065701;28;20497;-82
2022/09/06 12:00:33;;;;;;;4.90;1.30;;;33.80;99.90;;;;;;5057449;28;20452;-80
2022/09/06 12:03:00;;;;;;;3.20;1.23;;;34.00;99.90;;;;;;5064656;28;20502;-82
2022/09/06 12:05:29;;;;;;;2.30;1.20;;;34.20;99.20;;;;;;5065328;28;20432;-80
2022/09/06 12:08:32;;;;;;;4.63;1.40;;;34.40;96.00;;;;;;5067713;28;20522;-82
2022/09/06 12:11:23;;;;;;;3.37;1.30;;;34.40;99.90;;;;;;5063888;28;20515;-82
2022/09/06 12:14:03;;;;;;;3.83;1.30;;;34.60;99.90;;;;;;5061828;28;20461;-81
2022/09/06 12:17:08;;;;;;;3.10;1.30;;;34.70;97.00;;;;;;5067966;28;20444;-80
2022/09/06 12:19:44;;;;;;;4.07;1.50;;;35.00;97.50;;;;;;5063800;28;20460;-82
2022/09/06 12:23:00;;;;;;;2.90;1.47;;;35.00;96.80;;;;;;5063217;28;20463;-79
2022/09/06 12:25:51;;;;;;;3.30;1.30;;;35.40;98.90;;;;;;5060951;28;20444;-78
2022/09/06 12:28:41;;;;;;;6.33;1.67;;;35.70;91.20;;;;;;5050113;28;20428;-80
2022/09/06 12:31:32;;;;;;;2.70;1.27;;;35.40;92.90;;;;;;5060769;28;21101;-81
2022/09/06 12:34:05;;;;;;;2.30;1.20;;;35.20;96.20;;;;;;5060392;28;20444;-80
2022/09/06 12:36:32;;;;;;;3.30;1.30;;;35.30;98.80;;;;;;5059741;28;20527;-79
2022/09/06 12:39:00;;;;;;;3.07;1.40;;;35.30;91.30;;;;;;5061260;28;20471;-82
2022/09/06 12:41:32;;;;;;;5.20;1.60;;;34.90;85.60;;;;;;5068704;28;20538;-83
2022/09/06 12:44:07;;;;;;;3.80;1.20;;;34.90;89.30;;;;;;5052844;28;21446;-80
2022/09/06 12:46:35;;;;;;;5.90;1.30;;;34.90;87.60;;;;;;5058906;28;20487;-82
2022/09/06 12:49:05;;;;;;;5.73;1.63;;;35.20;89.80;;;;;;5054939;28;20463;-79
2022/09/06 12:51:35;;;;;;;4.50;1.77;;;35.20;88.10;;;;;;5060251;28;20522;-80
2022/09/06 12:54:04;;;;;;;3.70;1.10;;;35.40;90.60;;;;;;5053502;28;20480;-81
2022/09/06 12:56:33;;;;;;;4.43;1.53;;;35.40;91.70;;;;;;5059574;28;21170;-80
2022/09/06 12:59:16;;;;;;;3.50;1.53;;;35.60;81.70;;;;;;5056841;28;20538;-83
2022/09/06 13:01:51;;;;;;;4.17;1.53;;;35.60;89.90;;;;;;5062948;28;20468;-80
2022/09/06 13:04:26;;;;;;;4.03;1.70;;;35.20;81.60;;;;;;5064218;28;20519;-79
2022/09/06 13:06:54;;;;;;;5.07;2.10;;;35.40;80.80;;;;;;5059662;28;20460;-81
2022/09/06 13:09:25;;;;;;;7.80;1.70;;;35.50;90.80;;;;;;5065807;28;20455;-83